Time;durP1;ratioP1;P1;durP2;ratioP2;P2;SDS_P1;SDS_P2;PMS_P1;PMS_P2;Temp;Humidity;BMP_temperature;BMP_pressure;BME280_temperature;BME280_humidity;BME280_pressure;Samples;Min_cycle;Max_cycle;Signal;HPM_P1;HPM_P2
2023/04/07 00:01:32;;;;;;;9.32;7.63;;;;;;;4.74;60.48;96102.69;5053249;28;20090;-54
2023/04/07 00:03:59;;;;;;;11.70;8.77;;;;;;;4.75;60.93;96101.81;5053218;28;20107;-56
2023/04/07 00:06:27;;;;;;;9.10;7.57;;;;;;;4.72;58.69;96101.88;5053292;28;20540;-61
2023/04/07 00:08:54;;;;;;;10.05;7.80;;;;;;;4.74;58.33;96105.28;5053224;28;20049;-59
2023/04/07 00:11:21;;;;;;;10.80;8.25;;;;;;;4.83;58.42;96100.78;5052793;28;20056;-57
2023/04/07 00:13:48;;;;;;;11.93;8.13;;;;;;;4.85;57.38;96101.63;5053102;28;20388;-57
2023/04/07 00:16:16;;;;;;;11.30;8.18;;;;;;;4.89;57.43;96101.50;5053045;28;20673;-59
2023/04/07 00:18:45;;;;;;;12.00;8.40;;;;;;;4.91;58.40;96094.53;5053168;28;20118;-57
2023/04/07 00:21:12;;;;;;;9.70;7.97;;;;;;;4.99;59.75;96104.75;5053072;28;20051;-59
2023/04/07 00:23:39;;;;;;;13.50;8.38;;;;;;;4.97;59.78;96097.91;5053157;28;20041;-56
2023/04/07 00:26:06;;;;;;;10.30;7.28;;;;;;;4.85;59.26;96105.03;5052995;28;20094;-51
2023/04/07 00:28:33;;;;;;;8.85;7.95;;;;;;;4.80;60.66;96099.97;5052539;28;20044;-56
2023/04/07 00:31:00;;;;;;;12.25;7.78;;;;;;;4.82;60.77;96097.34;5052939;28;20076;-61
2023/04/07 00:33:27;;;;;;;14.52;7.93;;;;;;;4.81;61.71;96090.44;5052848;28;20487;-54
2023/04/07 00:35:57;;;;;;;9.50;7.45;;;;;;;4.78;62.33;96095.69;5052815;28;20045;-58
2023/04/07 00:38:24;;;;;;;8.77;6.27;;;;;;;4.75;62.79;96099.22;5052917;28;20072;-63
2023/04/07 00:40:58;;;;;;;13.43;7.22;;;;;;;4.75;63.29;96099.22;5052834;28;20049;-60
2023/04/07 00:43:25;;;;;;;8.70;7.55;;;;;;;4.75;63.96;96103.53;5052788;28;20057;-53
2023/04/07 00:45:52;;;;;;;10.45;7.93;;;;;;;4.60;64.67;96104.75;5052810;28;20049;-58
2023/04/07 00:48:20;;;;;;;9.68;8.07;;;;;;;4.61;63.55;96109.03;5052838;28;20124;-54
2023/04/07 00:50:47;;;;;;;9.77;7.43;;;;;;;4.61;63.21;96112.44;5052771;28;20045;-56
2023/04/07 00:53:16;;;;;;;9.90;7.88;;;;;;;4.58;63.14;96107.38;5052588;28;20049;-55
2023/04/07 00:55:43;;;;;;;12.82;9.20;;;;;;;4.55;64.11;96110.03;5052724;28;20128;-59
2023/04/07 00:58:10;;;;;;;10.57;8.27;;;;;;;4.54;64.79;96103.97;5052796;28;20080;-60
2023/04/07 01:00:45;;;;;;;13.68;7.97;;;;;;;4.59;65.18;96109.06;5052818;28;20402;-51
2023/04/07 01:03:20;;;;;;;10.13;7.57;;;;;;;4.59;65.45;96106.47;5052579;28;20063;-63
2023/04/07 01:05:58;;;;;;;14.43;8.25;;;;;;;4.61;65.68;96096.06;5052603;28;20053;-60
2023/04/07 01:08:33;;;;;;;11.25;8.55;;;;;;;4.64;65.92;96107.22;5052594;28;20076;-59
2023/04/07 01:11:05;;;;;;;10.38;8.77;;;;;;;4.65;66.40;96106.34;5052489;28;20091;-51
2023/04/07 01:13:36;;;;;;;14.02;9.60;;;;;;;4.65;65.91;96108.06;5052470;28;20219;-58
2023/04/07 01:16:08;;;;;;;12.15;8.93;;;;;;;4.62;65.62;96110.72;5052506;28;20057;-61
2023/04/07 01:18:38;;;;;;;10.02;8.13;;;;;;;4.52;64.63;96103.13;5052608;28;20060;-59
2023/04/07 01:21:08;;;;;;;12.73;5.85;;;;;;;4.47;62.87;96101.53;5052589;28;20402;-56
2023/04/07 01:23:52;;;;;;;9.82;8.23;;;;;;;4.45;62.80;96105.91;5052439;28;20075;-57
2023/04/07 01:26:22;;;;;;;9.82;7.70;;;;;;;4.45;64.11;96114.53;5052390;28;20127;-54
2023/04/07 01:29:07;;;;;;;13.75;8.25;;;;;;;4.38;64.29;96105.19;5052390;28;20132;-60
2023/04/07 01:31:39;;;;;;;10.23;8.27;;;;;;;4.37;64.62;96103.47;5052324;28;20049;-50
2023/04/07 01:34:09;;;;;;;11.48;7.97;;;;;;;4.34;64.47;96108.72;5052365;28;20049;-56
2023/04/07 01:36:36;;;;;;;11.75;8.20;;;;;;;4.39;66.25;96106.88;5052391;28;20045;-59
2023/04/07 01:39:04;;;;;;;14.65;8.63;;;;;;;4.40;66.71;96117.19;5053075;28;20045;-56
2023/04/07 01:41:32;;;;;;;12.27;7.85;;;;;;;4.43;66.85;96111.13;5055780;28;20084;-64
2023/04/07 01:44:01;;;;;;;12.93;8.65;;;;;;;4.40;67.19;96109.44;5055837;28;20052;-62
2023/04/07 01:46:28;;;;;;;11.27;9.07;;;;;;;4.40;68.45;96106.84;5055895;28;20049;-60
2023/04/07 01:48:57;;;;;;;11.02;7.68;;;;;;;4.37;67.49;96113.84;5055692;28;20045;-54
2023/04/07 01:51:26;;;;;;;17.95;8.00;;;;;;;4.37;66.82;96111.25;5055683;28;20137;-62
2023/04/07 01:53:54;;;;;;;12.73;8.80;;;;;;;4.39;66.50;96114.63;5055685;28;20052;-59
2023/04/07 01:56:21;;;;;;;11.65;8.40;;;;;;;4.37;66.82;96113.84;5055557;28;20099;-57
2023/04/07 01:58:48;;;;;;;11.75;9.13;;;;;;;4.34;67.26;96109.59;5055558;28;20045;-55
2023/04/07 02:01:15;;;;;;;10.45;8.35;;;;;;;4.33;67.35;96114.78;5055446;28;20084;-59
2023/04/07 02:03:49;;;;;;;10.80;8.35;;;;;;;4.26;68.13;96125.25;5055293;28;20099;-61
2023/04/07 02:06:22;;;;;;;11.75;7.80;;;;;;;4.30;68.61;96115.69;5055474;28;20045;-57
2023/04/07 02:08:55;;;;;;;13.38;9.40;;;;;;;4.32;68.61;96111.34;5055331;28;20050;-56
2023/04/07 02:11:24;;;;;;;10.23;8.25;;;;;;;4.36;68.71;96118.16;5055010;28;20045;-60
2023/04/07 02:13:54;;;;;;;10.50;8.68;;;;;;;4.40;68.53;96106.00;5055223;28;20048;-56
2023/04/07 02:16:22;;;;;;;11.27;8.60;;;;;;;4.40;68.76;96104.25;5055254;28;20052;-58
2023/04/07 02:18:50;;;;;;;9.50;7.80;;;;;;;4.39;68.77;96106.88;5055269;28;20131;-61
2023/04/07 02:21:20;;;;;;;10.05;7.95;;;;;;;4.36;68.82;96107.78;5055301;28;20053;-59
2023/04/07 02:23:47;;;;;;;7.33;6.43;;;;;;;4.33;68.64;96110.44;5055261;28;20088;-56
2023/04/07 02:26:14;;;;;;;11.80;8.63;;;;;;;4.34;68.91;96114.75;5055100;28;20099;-62
2023/04/07 02:28:41;;;;;;;12.27;8.90;;;;;;;4.28;68.73;96109.69;5054988;28;20088;-58
2023/04/07 02:31:09;;;;;;;10.65;8.52;;;;;;;4.24;68.57;96114.06;5054905;28;20049;-57
2023/04/07 02:33:40;;;;;;;9.65;8.40;;;;;;;4.29;68.83;96109.66;5054804;28;20131;-59
2023/04/07 02:36:08;;;;;;;13.07;8.40;;;;;;;4.30;69.68;96113.09;5054831;28;20044;-59
2023/04/07 02:38:36;;;;;;;11.38;8.38;;;;;;;4.29;69.85;96111.41;5054750;28;20084;-56
2023/04/07 02:41:03;;;;;;;12.88;8.75;;;;;;;4.27;69.58;96107.97;5054807;28;20461;-60
2023/04/07 02:43:30;;;;;;;11.02;8.93;;;;;;;4.27;69.82;96108.84;5054644;28;20052;-55
2023/04/07 02:45:57;;;;;;;10.88;8.65;;;;;;;4.23;69.56;96103.75;5054703;28;20529;-54
2023/04/07 02:48:24;;;;;;;13.30;8.75;;;;;;;4.18;69.99;96109.00;5054606;28;20041;-57
2023/04/07 02:50:52;;;;;;;10.48;8.40;;;;;;;4.13;70.53;96116.03;5054205;28;20053;-55
2023/04/07 02:53:18;;;;;;;10.80;8.50;;;;;;;4.08;70.39;96110.94;5054539;28;20052;-51
2023/04/07 02:55:47;;;;;;;11.02;8.55;;;;;;;4.02;70.69;96117.09;5054455;28;20131;-55
2023/04/07 02:58:14;;;;;;;13.00;8.68;;;;;;;4.02;70.51;96118.81;5054423;28;20132;-56
2023/04/07 03:00:42;;;;;;;11.65;8.30;;;;;;;4.00;70.33;96124.00;5054357;28;20045;-57
2023/04/07 03:03:09;;;;;;;13.70;9.27;;;;;;;4.00;70.63;96126.59;5054283;28;20049;-58
2023/04/07 03:05:36;;;;;;;11.73;8.68;;;;;;;4.03;71.12;96120.50;5054304;28;20144;-53
2023/04/07 03:08:03;;;;;;;11.02;8.45;;;;;;;4.00;71.61;96128.34;5054244;28;20088;-61
2023/04/07 03:10:30;;;;;;;13.38;9.23;;;;;;;3.98;71.79;96123.19;5054219;28;20045;-52
2023/04/07 03:12:59;;;;;;;13.18;9.57;;;;;;;4.01;71.86;96130.06;5054173;28;20521;-58
2023/04/07 03:15:26;;;;;;;12.70;10.02;;;;;;;4.02;71.70;96122.25;5054157;28;20191;-52
2023/04/07 03:17:53;;;;;;;12.70;9.25;;;;;;;4.06;71.57;96124.78;5054137;28;20106;-54
2023/04/07 03:20:20;;;;;;;15.60;9.70;;;;;;;4.07;71.79;96127.34;5054046;28;20068;-58
2023/04/07 03:22:48;;;;;;;103.47;78.97;;;;;;;4.08;71.16;96133.38;5053941;28;20048;-60
2023/04/07 03:25:16;;;;;;;16.52;12.30;;;;;;;4.06;71.21;96130.81;5053851;28;20045;-57
2023/04/07 03:27:44;;;;;;;13.00;11.02;;;;;;;4.03;71.48;96131.72;5053955;28;20041;-56
2023/04/07 03:30:14;;;;;;;17.08;11.52;;;;;;;4.04;71.87;96128.25;5053813;28;20131;-52
2023/04/07 03:32:41;;;;;;;11.70;8.80;;;;;;;4.00;71.49;96133.53;5053825;28;20045;-56
2023/04/07 03:35:09;;;;;;;13.38;9.18;;;;;;;3.96;71.16;96135.31;5053751;28;20045;-58
2023/04/07 03:37:36;;;;;;;12.10;9.25;;;;;;;3.97;71.33;96138.75;5053719;28;20487;-58
2023/04/07 03:40:05;;;;;;;13.73;8.70;;;;;;;3.94;71.46;96141.41;5053695;28;20136;-53
2023/04/07 03:42:32;;;;;;;14.50;9.40;;;;;;;3.87;71.19;96143.22;5053487;28;20167;-53
2023/04/07 03:44:59;;;;;;;12.52;9.30;;;;;;;3.80;71.43;96142.50;5053573;28;20064;-59
2023/04/07 03:47:28;;;;;;;11.10;9.05;;;;;;;3.79;71.79;96148.53;5053501;28;20132;-58
2023/04/07 03:49:56;;;;;;;11.18;9.27;;;;;;;3.78;71.06;96150.28;5053558;28;20506;-58
2023/04/07 03:52:23;;;;;;;13.15;9.95;;;;;;;3.75;70.58;96145.16;5053418;28;20099;-56
2023/04/07 03:54:50;;;;;;;11.82;9.23;;;;;;;3.70;71.03;96152.13;5053446;28;20056;-55
2023/04/07 03:57:18;;;;;;;11.35;9.88;;;;;;;3.67;71.06;96154.78;5053229;28;20045;-58
2023/04/07 03:59:46;;;;;;;13.00;9.98;;;;;;;3.63;71.64;96153.97;5053358;28;20045;-54
2023/04/07 04:02:13;;;;;;;12.38;9.27;;;;;;;3.66;71.40;96153.94;5052495;28;20056;-54
2023/04/07 04:04:43;;;;;;;13.43;9.77;;;;;;;3.68;72.13;96156.50;5053021;28;20052;-60
2023/04/07 04:07:11;;;;;;;8.00;7.17;;;;;;;3.68;72.06;96156.50;5053185;28;20056;-52
2023/04/07 04:09:39;;;;;;;14.57;9.45;;;;;;;3.70;72.13;96159.06;5053098;28;20095;-57
2023/04/07 04:12:08;;;;;;;13.32;10.52;;;;;;;3.70;72.57;96162.47;5052803;28;20080;-60
2023/04/07 04:14:36;;;;;;;14.05;9.35;;;;;;;3.67;72.62;96163.41;5053217;28;20053;-58
2023/04/07 04:17:04;;;;;;;13.82;9.80;;;;;;;3.69;73.04;96168.53;5053196;28;20541;-56
2023/04/07 04:19:32;;;;;;;12.95;9.73;;;;;;;3.65;73.16;96156.53;5053091;28;20048;-56
2023/04/07 04:22:03;;;;;;;15.10;10.65;;;;;;;3.69;72.72;96165.97;5053203;28;20090;-54
2023/04/07 04:24:32;;;;;;;13.27;10.13;;;;;;;3.72;72.50;96173.66;5052892;28;20057;-57
2023/04/07 04:27:00;;;;;;;12.32;9.40;;;;;;;3.68;72.29;96174.59;5052911;28;20048;-52
2023/04/07 04:29:28;;;;;;;13.70;9.77;;;;;;;3.57;71.09;96166.16;5053234;28;20071;-59
2023/04/07 04:31:55;;;;;;;11.20;9.38;;;;;;;3.55;70.92;96173.94;5052943;28;20490;-58
2023/04/07 04:34:22;;;;;;;12.25;10.10;;;;;;;3.51;70.14;96170.56;5052858;28;20084;-60
2023/04/07 04:36:49;;;;;;;12.38;9.52;;;;;;;3.48;69.86;96172.31;5052820;28;20094;-55
2023/04/07 04:39:18;;;;;;;14.77;10.23;;;;;;;3.47;70.23;96174.06;5052845;28;20049;-54
2023/04/07 04:41:46;;;;;;;13.60;9.85;;;;;;;3.51;71.25;96182.63;5052966;28;20049;-58
2023/04/07 04:44:13;;;;;;;12.80;9.70;;;;;;;3.53;70.67;96192.06;5052762;28;20053;-59
2023/04/07 04:46:40;;;;;;;12.70;10.07;;;;;;;3.62;70.39;96192.81;5052740;28;20053;-56
2023/04/07 04:49:07;;;;;;;16.23;9.50;;;;;;;3.70;70.87;96190.94;5052727;28;20453;-59
2023/04/07 04:51:38;;;;;;;15.02;10.25;;;;;;;3.77;70.88;96191.72;5052930;28;20067;-51
2023/04/07 04:54:05;;;;;;;14.20;10.85;;;;;;;3.82;71.81;96189.88;5052898;28;20136;-53
2023/04/07 04:56:34;;;;;;;13.82;10.73;;;;;;;3.84;71.86;96193.31;5052788;28;20506;-57
2023/04/07 04:59:02;;;;;;;15.68;9.65;;;;;;;3.86;71.67;96198.47;5052775;28;20049;-55
2023/04/07 05:01:30;;;;;;;14.65;10.15;;;;;;;3.97;72.42;96193.13;5052738;28;20045;-56
2023/04/07 05:03:57;;;;;;;15.52;11.07;;;;;;;3.97;70.72;96199.13;5052639;28;20482;-57
2023/04/07 05:06:26;;;;;;;18.83;11.27;;;;;;;3.99;70.60;96194.78;5052699;28;20044;-62
2023/04/07 05:08:53;;;;;;;14.38;10.68;;;;;;;4.07;72.37;96197.25;5052556;28;20124;-53
2023/04/07 05:11:23;;;;;;;12.80;11.20;;;;;;;4.11;69.83;96192.84;5052291;28;20041;-58
2023/04/07 05:13:52;;;;;;;14.85;11.30;;;;;;;4.11;67.69;96203.22;5054676;28;20088;-61
2023/04/07 05:16:21;;;;;;;14.07;11.15;;;;;;;4.05;67.43;96199.00;5056339;28;20388;-54
2023/04/07 05:18:48;;;;;;;15.80;11.00;;;;;;;4.10;66.32;96207.56;5056293;28;20449;-59
2023/04/07 05:21:16;;;;;;;15.02;11.57;;;;;;;4.22;66.63;96211.66;5056335;28;20064;-61
2023/04/07 05:23:43;;;;;;;14.23;11.23;;;;;;;4.34;66.27;96209.72;5056179;28;20494;-59
2023/04/07 05:26:10;;;;;;;15.63;11.80;;;;;;;4.45;67.04;96220.72;5056199;28;20114;-63
2023/04/07 05:28:38;;;;;;;16.73;11.75;;;;;;;4.59;66.30;96223.06;5056269;28;20388;-57
2023/04/07 05:31:07;;;;;;;15.55;11.65;;;;;;;4.66;65.00;96223.78;5056231;28;20049;-58
2023/04/07 05:33:34;;;;;;;14.98;11.43;;;;;;;4.74;63.44;96227.09;5056016;28;20064;-57
2023/04/07 05:36:01;;;;;;;17.92;11.48;;;;;;;4.82;63.07;96223.50;5056055;28;20391;-58
2023/04/07 05:38:28;;;;;;;13.95;10.85;;;;;;;4.90;63.22;96226.78;5055870;28;20045;-56
2023/04/07 05:40:56;;;;;;;15.20;10.88;;;;;;;4.99;62.29;96226.59;5055996;28;20041;-56
2023/04/07 05:43:24;;;;;;;14.85;10.95;;;;;;;5.10;62.75;96223.78;5055928;28;20049;-62
2023/04/07 05:45:52;;;;;;;15.73;10.85;;;;;;;5.25;61.54;96229.50;5055934;28;20052;-62
2023/04/07 05:48:21;;;;;;;12.52;9.85;;;;;;;5.39;59.46;96232.66;5055816;28;20467;-51
2023/04/07 05:50:48;;;;;;;12.00;9.52;;;;;;;5.44;58.90;96233.41;5055680;28;20132;-59
2023/04/07 05:53:16;;;;;;;13.52;10.73;;;;;;;5.51;59.10;96235.88;5055811;28;20099;-56
2023/04/07 05:55:44;;;;;;;13.40;10.45;;;;;;;5.73;57.74;96238.81;5055666;28;20402;-62
2023/04/07 05:58:11;;;;;;;12.55;9.27;;;;;;;5.75;56.53;96246.56;5055606;28;20056;-54
2023/04/07 06:00:38;;;;;;;13.73;9.75;;;;;;;5.84;56.79;96235.13;5055764;28;20056;-61
2023/04/07 06:03:06;;;;;;;14.30;9.70;;;;;;;5.87;55.75;96240.25;5055399;28;20045;-58
2023/04/07 06:05:35;;;;;;;12.65;8.85;;;;;;;5.78;55.60;96242.16;5055425;28;20045;-60
2023/04/07 06:08:02;;;;;;;12.63;9.77;;;;;;;5.85;56.40;96242.00;5055456;28;20120;-55
2023/04/07 06:10:30;;;;;;;12.07;8.93;;;;;;;5.93;57.02;96240.94;5055268;28;20077;-54
2023/04/07 06:12:58;;;;;;;13.38;9.45;;;;;;;5.91;54.96;96250.53;5055029;28;20060;-58
2023/04/07 06:15:25;;;;;;;11.77;9.10;;;;;;;6.00;55.40;96241.66;5055180;28;20049;-58
2023/04/07 06:17:52;;;;;;;10.25;8.38;;;;;;;6.03;54.26;96251.97;5055215;28;20052;-56
2023/04/07 06:20:21;;;;;;;14.75;8.43;;;;;;;5.99;52.91;96252.91;5055177;28;20075;-59
2023/04/07 06:22:50;;;;;;;15.57;8.27;;;;;;;5.90;52.52;96253.16;5055111;28;20128;-57
2023/04/07 06:25:18;;;;;;;10.20;7.95;;;;;;;5.85;53.17;96258.44;5054172;28;20080;-58
2023/04/07 06:27:45;;;;;;;13.00;8.70;;;;;;;5.94;53.53;96255.63;5055060;28;20111;-57
2023/04/07 06:30:14;;;;;;;13.73;8.25;;;;;;;6.04;53.42;96258.88;5055266;28;20136;-61
2023/04/07 06:32:41;;;;;;;17.40;8.15;;;;;;;6.14;52.01;96258.66;5054875;28;20049;-58
2023/04/07 06:35:08;;;;;;;12.88;8.35;;;;;;;6.30;52.31;96272.94;5054905;28;20513;-55
2023/04/07 06:37:36;;;;;;;12.90;8.77;;;;;;;6.47;54.31;96269.06;5054847;28;20044;-55
2023/04/07 06:40:05;;;;;;;14.15;8.75;;;;;;;6.43;54.90;96270.06;5054889;28;20507;-56
2023/04/07 06:42:33;;;;;;;9.70;7.88;;;;;;;6.51;52.17;96270.72;5054712;28;20494;-61
2023/04/07 06:45:00;;;;;;;9.70;7.78;;;;;;;6.57;51.10;96275.75;5054676;28;20053;-53
2023/04/07 06:47:27;;;;;;;9.95;7.90;;;;;;;6.61;53.66;96270.47;5054629;28;20048;-59
2023/04/07 06:49:54;;;;;;;9.48;7.63;;;;;;;6.70;51.06;96278.03;5054509;28;20080;-53
2023/04/07 06:52:21;;;;;;;12.35;8.80;;;;;;;6.63;53.21;96281.69;5054610;28;20124;-60
2023/04/07 06:54:48;;;;;;;10.50;8.02;;;;;;;6.56;50.72;96292.22;5054686;28;20552;-58
2023/04/07 06:57:18;;;;;;;9.30;7.22;;;;;;;6.47;51.15;96292.47;5054458;28;20084;-62
2023/04/07 06:59:46;;;;;;;11.80;8.50;;;;;;;6.42;52.39;96296.94;5054542;28;20088;-57
2023/04/07 07:02:13;;;;;;;9.70;7.85;;;;;;;6.42;52.22;96286.53;5054239;28;20453;-59
2023/04/07 07:04:40;;;;;;;9.18;7.30;;;;;;;6.47;51.98;96296.81;5054168;28;20099;-55
2023/04/07 07:07:07;;;;;;;10.52;8.02;;;;;;;6.32;50.92;96297.16;5054167;28;20049;-57
2023/04/07 07:09:34;;;;;;;13.93;8.25;;;;;;;6.15;50.94;96301.94;5054166;28;20072;-55
2023/04/07 07:12:02;;;;;;;11.98;8.18;;;;;;;6.05;53.04;96304.72;5053960;28;20080;-61
2023/04/07 07:14:30;;;;;;;14.32;9.63;;;;;;;6.16;52.25;96299.28;5054234;28;20049;-55
2023/04/07 07:16:57;;;;;;;17.40;10.05;;;;;;;6.14;52.25;96306.25;5054112;28;20052;-57
2023/04/07 07:19:25;;;;;;;17.33;9.82;;;;;;;6.10;52.20;96309.81;5054102;28;20128;-56
2023/04/07 07:21:52;;;;;;;21.48;10.32;;;;;;;6.13;52.77;96317.53;5053928;28;20044;-60
2023/04/07 07:24:19;;;;;;;12.27;8.95;;;;;;;6.18;50.84;96320.88;5053860;28;20216;-56
2023/04/07 07:26:46;;;;;;;15.43;10.80;;;;;;;6.14;51.74;96321.84;5053942;28;20056;-56
2023/04/07 07:29:13;;;;;;;12.25;8.38;;;;;;;6.22;51.02;96324.25;5053947;28;20056;-55
2023/04/07 07:31:46;;;;;;;11.55;9.30;;;;;;;6.23;50.89;96322.53;5053853;28;20468;-63
2023/04/07 07:34:13;;;;;;;14.40;9.20;;;;;;;6.30;50.58;96324.09;5053779;28;20076;-56
2023/04/07 07:36:40;;;;;;;14.13;9.95;;;;;;;6.54;51.61;96317.41;5053602;28;20049;-57
2023/04/07 07:39:08;;;;;;;13.45;9.52;;;;;;;6.63;50.21;96318.94;5053693;28;20091;-55
2023/04/07 07:41:35;;;;;;;14.85;11.02;;;;;;;6.68;50.05;96318.78;5053699;28;20063;-54
2023/04/07 07:44:03;;;;;;;14.55;10.73;;;;;;;6.86;49.53;96322.66;5053508;28;20441;-61
2023/04/07 07:46:30;;;;;;;12.90;8.57;;;;;;;6.84;48.19;96319.25;5053577;28;20053;-56
2023/04/07 07:48:59;;;;;;;12.88;8.60;;;;;;;6.92;48.88;96321.63;5053527;28;20052;-58
2023/04/07 07:51:27;;;;;;;10.82;8.70;;;;;;;7.30;48.94;96319.75;5053472;28;20099;-57
2023/04/07 07:53:54;;;;;;;13.85;8.73;;;;;;;7.72;49.21;96330.69;5053424;28;20052;-57
2023/04/07 07:56:22;;;;;;;12.88;8.50;;;;;;;7.98;49.19;96323.84;5053327;28;20139;-59
2023/04/07 07:58:49;;;;;;;11.38;9.13;;;;;;;8.24;46.14;96327.38;5053387;28;20412;-53
2023/04/07 08:01:17;;;;;;;11.25;8.70;;;;;;;8.59;46.03;96321.94;5053315;28;20040;-53
2023/04/07 08:03:44;;;;;;;11.77;9.80;;;;;;;9.03;45.90;96325.69;5053246;28;20049;-58
2023/04/07 08:06:13;;;;;;;12.20;9.05;;;;;;;9.51;45.44;96334.38;5053114;28;20080;-57
2023/04/07 08:08:40;;;;;;;15.25;10.20;;;;;;;9.57;45.58;96331.53;5053234;28;20045;-57
2023/04/07 08:11:08;;;;;;;12.68;9.90;;;;;;;9.76;46.13;96332.63;5053344;28;20068;-58
2023/04/07 08:13:35;;;;;;;11.85;10.07;;;;;;;9.93;43.12;96332.00;5052905;28;20103;-58
2023/04/07 08:16:04;;;;;;;13.77;10.23;;;;;;;10.35;45.63;96317.25;5053223;28;20049;-54
2023/04/07 08:18:31;;;;;;;13.02;9.38;;;;;;;10.51;40.35;96328.00;5053013;28;20041;-57
2023/04/07 08:20:59;;;;;;;13.52;9.60;;;;;;;10.35;39.83;96327.72;5053065;28;20049;-54
2023/04/07 08:23:27;;;;;;;18.45;9.77;;;;;;;10.66;42.71;96318.66;5053073;28;20049;-56
2023/04/07 08:25:55;;;;;;;14.85;9.30;;;;;;;11.46;43.89;96323.94;5053018;28;20052;-59
2023/04/07 08:28:22;;;;;;;10.32;8.18;;;;;;;11.61;42.11;96326.78;5052997;28;20483;-56
2023/04/07 08:30:50;;;;;;;15.20;10.82;;;;;;;11.50;40.45;96324.66;5052993;28;20092;-53
2023/04/07 08:33:17;;;;;;;11.20;8.65;;;;;;;11.02;38.06;96319.75;5052881;28;20056;-54
2023/04/07 08:35:44;;;;;;;10.73;8.38;;;;;;;10.74;40.95;96319.16;5052977;28;20049;-54
2023/04/07 08:38:11;;;;;;;11.38;8.63;;;;;;;11.06;41.07;96317.84;5052917;28;20041;-57
2023/04/07 08:40:41;;;;;;;12.20;8.40;;;;;;;11.04;38.66;96317.06;5052826;28;20045;-56
2023/04/07 08:43:10;;;;;;;13.27;9.43;;;;;;;11.22;42.44;96318.88;5052954;28;20406;-61
2023/04/07 08:45:40;;;;;;;10.82;8.80;;;;;;;11.69;39.72;96311.56;5052704;28;20048;-55
2023/04/07 08:48:12;;;;;;;;;;;;;;;11.82;37.43;96313.59;5054189;28;20076;-52
2023/04/07 08:50:40;;;;;;;11.13;8.98;;;;;;;11.68;39.28;96312.47;5056960;28;20336;-57
2023/04/07 08:53:12;;;;;;;10.13;7.65;;;;;;;11.77;37.73;96312.97;5056889;28;20403;-59
2023/04/07 08:55:41;;;;;;;11.48;8.13;;;;;;;11.83;39.37;96318.78;5056842;28;20063;-61
2023/04/07 08:58:12;;;;;;;10.48;7.55;;;;;;;12.15;38.21;96318.22;5056717;28;20096;-58
2023/04/07 09:00:40;;;;;;;;;;;;;;;12.51;39.65;96308.63;5057127;28;20049;-60
2023/04/07 09:03:08;;;;;;;9.20;7.75;;;;;;;13.00;37.98;96314.94;5056731;28;20298;-64
2023/04/07 09:05:36;;;;;;;10.48;8.00;;;;;;;13.10;36.57;96313.53;5056522;28;20053;-58
2023/04/07 09:08:04;;;;;;;11.30;7.55;;;;;;;12.60;38.49;96307.31;5056612;28;20406;-54
2023/04/07 09:10:31;;;;;;;10.20;7.38;;;;;;;12.69;36.96;96311.25;5056645;28;20068;-59
2023/04/07 09:13:00;;;;;;;8.23;6.97;;;;;;;12.61;38.74;96311.63;5056394;28;20517;-54
2023/04/07 09:15:30;;;;;;;9.60;7.63;;;;;;;12.82;37.93;96312.31;5056341;28;20055;-59
2023/04/07 09:17:58;;;;;;;9.27;7.43;;;;;;;13.01;38.68;96322.72;5056352;28;20138;-59
2023/04/07 09:20:26;;;;;;;9.40;6.78;;;;;;;13.26;37.13;96313.59;5056398;28;20053;-53
2023/04/07 09:22:53;;;;;;;9.00;7.57;;;;;;;13.62;38.13;96314.38;5056212;28;20079;-59
2023/04/07 09:25:26;;;;;;;9.63;7.78;;;;;;;13.55;34.59;96320.03;5056285;28;20059;-54
2023/04/07 09:27:57;;;;;;;12.15;7.18;;;;;;;13.36;33.79;96318.34;5056169;28;20079;-60
2023/04/07 09:30:27;;;;;;;9.32;7.43;;;;;;;13.04;35.88;96310.38;5056141;28;20049;-59
2023/04/07 09:32:55;;;;;;;9.00;7.77;;;;;;;12.78;36.24;96313.41;5056120;28;20079;-53
2023/04/07 09:35:23;;;;;;;10.93;7.78;;;;;;;12.75;37.00;96310.94;5055928;28;20293;-59
2023/04/07 09:38:05;;;;;;;9.88;7.57;;;;;;;12.61;38.22;96311.63;5055974;28;20056;-56
2023/04/07 09:40:32;;;;;;;13.27;8.98;;;;;;;12.27;35.00;96322.00;5056097;28;20041;-63
2023/04/07 09:43:00;;;;;;;10.80;8.25;;;;;;;12.11;35.77;96317.53;5055951;28;20049;-55
2023/04/07 09:45:33;;;;;;;10.88;7.90;;;;;;;12.31;38.00;96315.69;5055738;28;20085;-58
2023/04/07 09:48:05;;;;;;;10.68;7.35;;;;;;;12.72;36.35;96304.09;5055775;28;20398;-60
2023/04/07 09:50:34;;;;;;;10.52;7.13;;;;;;;12.92;39.39;96302.22;5055784;28;20134;-64
2023/04/07 09:53:03;;;;;;;11.50;7.20;;;;;;;13.02;37.44;96305.22;5055808;28;20102;-54
2023/04/07 09:55:31;;;;;;;9.90;6.72;;;;;;;13.16;38.24;96304.50;5055606;28;20473;-57
2023/04/07 09:57:58;;;;;;;10.60;7.68;;;;;;;13.35;37.75;96307.00;5055647;28;20059;-59
2023/04/07 10:00:26;;;;;;;10.32;7.15;;;;;;;13.45;37.25;96304.72;5054337;28;20087;-58
2023/04/07 10:02:56;;;;;;;9.30;6.78;;;;;;;13.16;36.30;96309.75;5055638;28;20056;-60
2023/04/07 10:05:24;;;;;;;8.25;6.97;;;;;;;12.93;37.65;96300.44;5055378;28;20092;-58
2023/04/07 10:07:51;;;;;;;11.05;7.72;;;;;;;12.87;36.61;96301.59;5055342;28;20049;-54
2023/04/07 10:10:19;;;;;;;12.68;7.88;;;;;;;12.75;37.79;96290.81;5055306;28;20506;-60
2023/04/07 10:12:48;;;;;;;8.43;7.32;;;;;;;12.94;38.15;96289.84;5055162;28;20045;-56
2023/04/07 10:15:16;;;;;;;8.70;6.63;;;;;;;12.79;38.69;96296.72;5055327;28;20100;-55
2023/04/07 10:17:48;;;;;;;10.13;7.15;;;;;;;12.54;38.85;96302.38;5055238;28;20430;-59
2023/04/07 10:20:19;;;;;;;11.73;7.18;;;;;;;12.30;36.27;96305.28;5055141;28;20132;-57
2023/04/07 10:22:49;;;;;;;9.10;7.13;;;;;;;12.38;37.37;96303.13;5055199;28;20518;-58
2023/04/07 10:25:21;;;;;;;8.10;6.47;;;;;;;12.25;39.82;96293.25;5055035;28;20048;-55
2023/04/07 10:27:51;;;;;;;8.50;7.43;;;;;;;12.43;40.84;96302.91;5055252;28;20077;-61
2023/04/07 10:30:22;;;;;;;9.73;7.47;;;;;;;12.40;38.05;96303.06;5055146;28;20044;-58
2023/04/07 10:32:51;;;;;;;9.93;7.93;;;;;;;12.68;40.75;96293.81;5054989;28;20044;-54
2023/04/07 10:35:20;;;;;;;8.50;7.60;;;;;;;12.92;36.61;96304.84;5054993;28;20052;-56
2023/04/07 10:38:10;;;;;;;10.35;6.82;;;;;;;12.98;38.70;96307.13;5054933;28;20053;-60
2023/04/07 10:40:38;;;;;;;11.93;7.68;;;;;;;12.95;38.78;96307.31;5054981;28;20488;-58
2023/04/07 10:43:08;;;;;;;10.55;7.00;;;;;;;12.60;37.95;96304.69;5054774;28;20548;-60
2023/04/07 10:45:58;;;;;;;9.68;7.43;;;;;;;12.05;40.28;96309.06;5054753;28;20409;-53
2023/04/07 10:48:31;;;;;;;9.47;7.23;;;;;;;11.97;40.13;96312.91;5054636;28;20049;-60
2023/04/07 10:51:21;;;;;;;11.23;7.78;;;;;;;11.94;39.75;96315.66;5054727;28;20057;-55
2023/04/07 10:54:21;;;;;;;11.43;6.80;;;;;;;11.78;39.95;96309.44;5050199;28;20060;-54
2023/04/07 10:57:14;;;;;;;11.57;7.13;;;;;;;11.88;41.27;96303.69;5054484;28;20104;-52
2023/04/07 11:00:04;;;;;;;9.15;7.20;;;;;;;12.37;40.05;96296.19;5054529;28;20510;-55
2023/04/07 11:02:33;;;;;;;12.35;7.18;;;;;;;12.46;40.65;96303.59;5054351;28;20110;-54
2023/04/07 11:05:01;;;;;;;8.55;7.30;;;;;;;12.31;37.80;96307.00;5054284;28;20044;-58
2023/04/07 11:07:48;;;;;;;8.88;7.22;;;;;;;12.25;39.92;96308.97;5054268;28;20053;-63
2023/04/07 11:10:18;;;;;;;10.05;7.45;;;;;;;12.37;38.31;96309.28;5054253;28;20055;-57
2023/04/07 11:12:58;;;;;;;10.23;6.72;;;;;;;12.16;37.36;96301.53;5053952;28;20071;-54
2023/04/07 11:15:26;;;;;;;9.30;7.75;;;;;;;12.40;37.21;96317.00;5054290;28;20041;-55
2023/04/07 11:18:15;;;;;;;11.40;7.00;;;;;;;12.23;38.55;96316.09;5054073;28;20479;-56
2023/04/07 11:20:47;;;;;;;8.40;6.53;;;;;;;12.17;37.81;96320.75;5054007;28;20474;-55
2023/04/07 11:23:18;;;;;;;7.88;6.10;;;;;;;12.05;37.53;96309.91;5054132;28;20045;-55
2023/04/07 11:25:46;;;;;;;;;;;;;;;11.92;39.32;96303.56;5054495;28;20064;-57
2023/04/07 11:28:14;;;;;;;12.63;6.88;;;;;;;11.46;37.57;96307.38;5053970;28;20007;-58
2023/04/07 11:30:48;;;;;;;9.25;6.97;;;;;;;11.38;38.39;96307.75;5053814;28;20483;-59
2023/04/07 11:33:17;;;;;;;10.52;6.85;;;;;;;11.34;38.70;96309.63;5053901;28;20514;-53
2023/04/07 11:35:49;;;;;;;10.25;6.78;;;;;;;11.61;42.67;96304.06;5053798;28;20048;-56
2023/04/07 11:38:18;;;;;;;10.60;6.38;;;;;;;11.84;41.40;96304.78;5053810;28;20170;-59
2023/04/07 11:40:45;;;;;;;7.80;5.97;;;;;;;11.72;37.87;96308.81;5053890;28;20049;-61